Spicewood's Hourly Summary for Wednesday, May 5, 2021
Hour Temp
(f)
RH
(%)
Solar Rad.
(MJ/m2)
Rainfall
(in)
Wind
(mph)
Battery
(volts)
5/5/2021 12:00 AM 65 69 0 0 5.14 0
5/5/2021 1:00 AM 64 73 0 0 4.85 0
5/5/2021 2:00 AM 62 77 0 0 2.02 0
5/5/2021 3:00 AM 60 80 0 0 2.71 0
5/5/2021 4:00 AM 59 80 0 0 1.86 0
5/5/2021 5:00 AM 59 81 0 0 2.58 0
5/5/2021 6:00 AM 58 85 0 0 1.03 0
5/5/2021 7:00 AM 56 85 0.01 0 0.59 0
5/5/2021 8:00 AM 60 78 0.24 0 0.56 0
5/5/2021 9:00 AM 63 62 0.74 0 3.04 0
5/5/2021 10:00 AM 66 52 1.49 0 4.1 0
5/5/2021 11:00 AM 68 48 1.52 0 5.53 0
5/5/2021 12:00 PM 71 38 1.67 0 5.9 0
5/5/2021 1:00 PM 73 34 2.4 0 5.69 0
5/5/2021 2:00 PM 76 27 2.72 0 5.33 0
5/5/2021 3:00 PM 78 24 2.96 0 3.54 0
5/5/2021 4:00 PM 80 22 2.67 0 4.05 0
5/5/2021 5:00 PM 81 23 2.2 0 4.22 0
5/5/2021 6:00 PM 81 24 1.62 0 3.18 0
5/5/2021 7:00 PM 80 27 0.98 0 2.73 0
5/5/2021 8:00 PM 77 33 0.36 0 1.98 0
5/5/2021 9:00 PM 71 44 0.01 0 1.03 0
5/5/2021 10:00 PM 67 51 0 0 0.66 0
5/5/2021 11:00 PM 64 60 0 0 0.4 0
Data Summary 68 53 21.59 0.00 3.03 0.00